PAKT Airport Information

Runway Information
Runway 11 Length 7500 ft width 150 ft
Elevation 82 ft Threshold 0 ft Heading 136
Runway 29 Length 7500 ft Width 150 ft
Elevation 89 ft Threshold 0 ft Heading 316
Runway ESE Length 9500 ft width 1500 ft
Elevation 0 ft Threshold 0 ft Heading 0
Runway WNW Length 9500 ft Width 1500 ft
Elevation 0 ft Threshold 0 ft Heading 0
Airport Frequencies
Type ATIS Name ATIS Frequency 119.9 MHZ
Type CNTR Name ANCHORAGE Frequency 118.5 MHZ
Type CTAF Name CTAF Frequency 123.6 MHZ
Type FSS Name RDO Frequency 123.6 MHZ
Type UNIC Name UNICOM Frequency 122.95 MHZ
Airport Navaids
Type NDB Name Clam Cove Frequency 396 KHZ
Airport Weather Information & NOTAM
ADDS - METARS form results

(0844 UTC 16 May 2022)
Data provider http://aviationweather.gov/metar/data/
 
METAR text: PAKT 160837Z AUTO 16007KT 10SM -RA BKN028 OVC038 07/06 A2961 RMK AO2 P0004 T00720061 TSNO $
Conditions at: PAKT (KETCHIKAN , AK, US) observed 0837 UTC 16 May 2022
Temperature: 7.2°C (45°F)
Dewpoint: 6.1°C (43°F) [RH = 93%]
Pressure (altimeter): 29.61 inches Hg (1002.8 mb)
Winds: from the SSE (160 degrees) at 8 MPH (7 knots; 3.6 m/s)
Visibility: 10 or more miles (16+ km)
Ceiling: 2800 feet AGL
Clouds: broken clouds at 2800 feet AGL
overcast cloud deck at 3800 feet AGL
Weather: -RA  (light rain)
SOME DATA ABOVE MAY BE INACCURATE!!!
"$" is an indication the sensor requires maintenance

METAR text: PAKT 160805Z AUTO 15008KT 9SM -RA SCT026 OVC033 07/06 A2961 RMK AO2 P0002 T00720061 TSNO $
Conditions at: PAKT (KETCHIKAN , AK, US) observed 0805 UTC 16 May 2022
Temperature: 7.2°C (45°F)
Dewpoint: 6.1°C (43°F) [RH = 93%]
Pressure (altimeter): 29.61 inches Hg (1002.8 mb)
Winds: from the SSE (150 degrees) at 9 MPH (8 knots; 4.1 m/s)
Visibility: 9 miles (14 km)
Ceiling: 3300 feet AGL
Clouds: scattered clouds at 2600 feet AGL
overcast cloud deck at 3300 feet AGL
Weather: -RA  (light rain)
SOME DATA ABOVE MAY BE INACCURATE!!!
"$" is an indication the sensor requires maintenance

METAR text: PAKT 160751Z AUTO 15005KT 10SM -RA BKN028 OVC033 07/07 A2961 RMK AO2 P0003 TSNO $
Conditions at: PAKT (KETCHIKAN , AK, US) observed 0751 UTC 16 May 2022
Temperature: 7.0°C (45°F)
Dewpoint: 7.0°C (45°F) [RH = 100%]
Pressure (altimeter): 29.61 inches Hg (1002.8 mb)
Winds: from the SSE (150 degrees) at 6 MPH (5 knots; 2.6 m/s)
Visibility: 10 or more miles (16+ km)
Ceiling: 2800 feet AGL
Clouds: broken clouds at 2800 feet AGL
overcast cloud deck at 3300 feet AGL
Weather: -RA  (light rain)
SOME DATA ABOVE MAY BE INACCURATE!!!
"$" is an indication the sensor requires maintenance

Forecast for: PAKT (KETCHIKAN , AK, US)
Text: PAKT 160528Z 1606/1706 16008KT 6SM -SHRA FEW008 BKN020 OVC035
Forecast period: 0600 to 1300 UTC 16 May 2022
Forecast type: FROM: standard forecast or significant change
Winds: from the SSE (160 degrees) at 9 MPH (8 knots; 4.1 m/s)
Visibility: 6 miles (10 km)
Ceiling: 2000 feet AGL
Clouds: few clouds at 800 feet AGL
broken clouds at 2000 feet AGL
overcast cloud deck at 3500 feet AGL
Weather: -SHRA  (light rain showers)
Text: TEMPO 1609/1613 VRB05G15KT 4SM SHRA BKN009 OVC015
Forecast period: 0900 to 1300 UTC 16 May 2022
Forecast type: TEMPORARY: The following changes expected for less than half the time period
Winds: variable direction winds at 6 MPH (5 knots; 2.6 m/s)
gusting to 17 MPH (15 knots; 7.7 m/s)
Visibility: 4 miles (6 km)
Ceiling: 900 feet AGL
Clouds: broken clouds at 900 feet AGL
overcast cloud deck at 1500 feet AGL
Weather: SHRA  (rain showers)
Text: FM161300 14012G20KT P6SM -SHRA SCT025 BKN035
Forecast period: 1300 to 1800 UTC 16 May 2022
Forecast type: FROM: standard forecast or significant change
Winds: from the SE (140 degrees) at 14 MPH (12 knots; 6.2 m/s)
gusting to 23 MPH (20 knots; 10.3 m/s)
Visibility: 6 or more miles (10+ km)
Ceiling: 3500 feet AGL
Clouds: scattered clouds at 2500 feet AGL
broken clouds at 3500 feet AGL
Weather: -SHRA  (light rain showers)
Text: FM161800 14016G25KT P6SM VCSH SCT025 BKN035 AMD LTD TO CLD VIS AND WIND 1606/1615
Forecast period: 1800 UTC 16 May 2022 to 0600 UTC 17 May 2022
Forecast type: FROM: standard forecast or significant change
Winds: from the SE (140 degrees) at 18 MPH (16 knots; 8.2 m/s)
gusting to 29 MPH (25 knots; 12.9 m/s)
Visibility: 6 or more miles (10+ km)
Ceiling: 3500 feet AGL
Clouds: scattered clouds at 2500 feet AGL
broken clouds at 3500 feet AGL
Weather: VCSH  (showers in vicinity)